Terminal Aerodrome Forecast
Issued by NWS

Home | Current Version | Previous Version | Text Only | Print | Product List | Glossary On
Versions: 1 2 3 4 5 6 7 8 9 10 11 12 13 14 15 16 17 18
000
FTUS41 KPBZ 221100
TAFBVI
TAF
KBVI 221139Z 2212/2312 12005KT P6SM SCT250
     FM222200 12006KT P6SM BKN045
     FM230900 12007KT 5SM BR OVC030 PROB30 2310/2312 4SM -RA BR
      OVC025=

USA.gov is the U.S. government's official web portal to all federal, state and local government web resources and services.